sensor_id;sensor_type;location;lat;lon;timestamp;P1;durP1;ratioP1;P2;durP2;ratioP2
54845;SDS011;53889;50.084;8.646;2022-08-20T00:01:58;5.95;;;4.20;;
54845;SDS011;53889;50.084;8.646;2022-08-20T00:04:25;6.03;;;4.32;;
54845;SDS011;53889;50.084;8.646;2022-08-20T00:06:53;8.05;;;4.80;;
54845;SDS011;53889;50.084;8.646;2022-08-20T00:09:23;5.88;;;4.20;;
54845;SDS011;53889;50.084;8.646;2022-08-20T00:11:50;6.72;;;4.50;;
54845;SDS011;53889;50.084;8.646;2022-08-20T00:14:17;6.90;;;4.07;;
54845;SDS011;53889;50.084;8.646;2022-08-20T00:16:45;7.20;;;4.18;;
54845;SDS011;53889;50.084;8.646;2022-08-20T00:19:12;6.15;;;4.03;;
54845;SDS011;53889;50.084;8.646;2022-08-20T00:21:39;5.53;;;3.70;;
54845;SDS011;53889;50.084;8.646;2022-08-20T00:24:06;7.20;;;4.50;;
54845;SDS011;53889;50.084;8.646;2022-08-20T00:26:35;6.50;;;4.53;;
54845;SDS011;53889;50.084;8.646;2022-08-20T00:29:02;9.15;;;4.57;;
54845;SDS011;53889;50.084;8.646;2022-08-20T00:31:29;6.70;;;4.13;;
54845;SDS011;53889;50.084;8.646;2022-08-20T00:33:57;5.53;;;3.85;;
54845;SDS011;53889;50.084;8.646;2022-08-20T00:36:24;7.25;;;3.67;;
54845;SDS011;53889;50.084;8.646;2022-08-20T00:38:52;5.00;;;3.45;;
54845;SDS011;53889;50.084;8.646;2022-08-20T00:41:22;7.63;;;3.70;;
54845;SDS011;53889;50.084;8.646;2022-08-20T00:43:51;6.53;;;3.78;;
54845;SDS011;53889;50.084;8.646;2022-08-20T00:46:29;7.40;;;3.67;;
54845;SDS011;53889;50.084;8.646;2022-08-20T00:48:57;6.32;;;3.47;;
54845;SDS011;53889;50.084;8.646;2022-08-20T00:51:28;9.10;;;3.80;;
54845;SDS011;53889;50.084;8.646;2022-08-20T00:54:00;6.03;;;3.53;;
54845;SDS011;53889;50.084;8.646;2022-08-20T00:56:31;5.60;;;3.80;;
54845;SDS011;53889;50.084;8.646;2022-08-20T00:59:00;6.25;;;3.63;;
54845;SDS011;53889;50.084;8.646;2022-08-20T01:01:30;7.47;;;4.05;;
54845;SDS011;53889;50.084;8.646;2022-08-20T01:03:58;5.50;;;3.72;;
54845;SDS011;53889;50.084;8.646;2022-08-20T01:06:25;6.40;;;3.55;;
54845;SDS011;53889;50.084;8.646;2022-08-20T01:08:52;5.32;;;3.45;;
54845;SDS011;53889;50.084;8.646;2022-08-20T01:11:19;6.18;;;3.53;;
54845;SDS011;53889;50.084;8.646;2022-08-20T01:13:56;6.50;;;3.38;;
54845;SDS011;53889;50.084;8.646;2022-08-20T01:16:26;6.63;;;3.70;;
54845;SDS011;53889;50.084;8.646;2022-08-20T01:18:56;5.78;;;3.45;;
54845;SDS011;53889;50.084;8.646;2022-08-20T01:21:25;4.85;;;3.20;;
54845;SDS011;53889;50.084;8.646;2022-08-20T01:23:56;5.47;;;3.22;;
54845;SDS011;53889;50.084;8.646;2022-08-20T01:26:29;6.28;;;3.70;;
54845;SDS011;53889;50.084;8.646;2022-08-20T01:29:02;6.13;;;3.88;;
54845;SDS011;53889;50.084;8.646;2022-08-20T01:31:33;5.20;;;3.30;;
54845;SDS011;53889;50.084;8.646;2022-08-20T01:34:02;4.70;;;3.28;;
54845;SDS011;53889;50.084;8.646;2022-08-20T01:36:33;6.35;;;3.67;;
54845;SDS011;53889;50.084;8.646;2022-08-20T01:39:03;4.78;;;3.03;;
54845;SDS011;53889;50.084;8.646;2022-08-20T01:41:35;5.00;;;3.20;;
54845;SDS011;53889;50.084;8.646;2022-08-20T01:44:10;4.18;;;2.90;;
54845;SDS011;53889;50.084;8.646;2022-08-20T01:46:38;4.10;;;2.78;;
54845;SDS011;53889;50.084;8.646;2022-08-20T01:49:09;4.63;;;2.90;;
54845;SDS011;53889;50.084;8.646;2022-08-20T01:51:39;4.93;;;2.78;;
54845;SDS011;53889;50.084;8.646;2022-08-20T01:54:06;5.32;;;2.92;;
54845;SDS011;53889;50.084;8.646;2022-08-20T01:56:36;5.65;;;3.00;;
54845;SDS011;53889;50.084;8.646;2022-08-20T01:59:19;6.65;;;2.97;;
54845;SDS011;53889;50.084;8.646;2022-08-20T02:01:46;5.20;;;2.80;;
54845;SDS011;53889;50.084;8.646;2022-08-20T02:04:14;3.33;;;2.50;;
54845;SDS011;53889;50.084;8.646;2022-08-20T02:06:43;5.13;;;2.70;;
54845;SDS011;53889;50.084;8.646;2022-08-20T02:09:12;6.15;;;2.40;;
54845;SDS011;53889;50.084;8.646;2022-08-20T02:11:41;3.95;;;2.45;;
54845;SDS011;53889;50.084;8.646;2022-08-20T02:14:10;5.47;;;2.67;;
54845;SDS011;53889;50.084;8.646;2022-08-20T02:16:37;4.90;;;2.35;;
54845;SDS011;53889;50.084;8.646;2022-08-20T02:19:08;4.90;;;2.30;;
54845;SDS011;53889;50.084;8.646;2022-08-20T02:21:38;4.18;;;2.63;;
54845;SDS011;53889;50.084;8.646;2022-08-20T02:24:08;3.10;;;2.10;;
54845;SDS011;53889;50.084;8.646;2022-08-20T02:26:35;4.97;;;2.35;;
54845;SDS011;53889;50.084;8.646;2022-08-20T02:29:04;3.60;;;2.20;;
54845;SDS011;53889;50.084;8.646;2022-08-20T02:31:33;5.05;;;2.60;;
54845;SDS011;53889;50.084;8.646;2022-08-20T02:34:01;4.63;;;2.90;;
54845;SDS011;53889;50.084;8.646;2022-08-20T02:36:29;4.00;;;2.65;;
54845;SDS011;53889;50.084;8.646;2022-08-20T02:38:57;3.60;;;2.63;;
54845;SDS011;53889;50.084;8.646;2022-08-20T02:41:23;3.60;;;2.60;;
54845;SDS011;53889;50.084;8.646;2022-08-20T02:43:51;4.70;;;2.60;;
54845;SDS011;53889;50.084;8.646;2022-08-20T02:46:20;3.55;;;2.40;;
54845;SDS011;53889;50.084;8.646;2022-08-20T02:48:47;3.60;;;2.47;;
54845;SDS011;53889;50.084;8.646;2022-08-20T02:51:14;4.70;;;2.50;;
54845;SDS011;53889;50.084;8.646;2022-08-20T02:53:41;3.05;;;2.22;;
54845;SDS011;53889;50.084;8.646;2022-08-20T02:56:09;4.00;;;2.47;;
54845;SDS011;53889;50.084;8.646;2022-08-20T02:58:37;4.40;;;2.25;;
54845;SDS011;53889;50.084;8.646;2022-08-20T03:01:06;4.25;;;3.22;;
54845;SDS011;53889;50.084;8.646;2022-08-20T03:03:37;3.97;;;2.75;;
54845;SDS011;53889;50.084;8.646;2022-08-20T03:06:04;4.47;;;3.00;;
54845;SDS011;53889;50.084;8.646;2022-08-20T03:08:33;4.22;;;2.60;;
54845;SDS011;53889;50.084;8.646;2022-08-20T03:11:00;4.10;;;3.22;;
54845;SDS011;53889;50.084;8.646;2022-08-20T03:13:29;5.03;;;3.10;;
54845;SDS011;53889;50.084;8.646;2022-08-20T03:15:56;5.05;;;3.30;;
54845;SDS011;53889;50.084;8.646;2022-08-20T03:18:27;6.95;;;3.42;;
54845;SDS011;53889;50.084;8.646;2022-08-20T03:20:58;6.70;;;3.30;;
54845;SDS011;53889;50.084;8.646;2022-08-20T03:23:25;4.88;;;3.30;;
54845;SDS011;53889;50.084;8.646;2022-08-20T03:25:52;4.10;;;3.13;;
54845;SDS011;53889;50.084;8.646;2022-08-20T03:28:20;5.68;;;3.25;;
54845;SDS011;53889;50.084;8.646;2022-08-20T03:30:47;3.95;;;3.25;;
54845;SDS011;53889;50.084;8.646;2022-08-20T03:33:15;4.97;;;3.55;;
54845;SDS011;53889;50.084;8.646;2022-08-20T03:35:44;5.45;;;3.45;;
54845;SDS011;53889;50.084;8.646;2022-08-20T03:38:14;5.13;;;3.67;;
54845;SDS011;53889;50.084;8.646;2022-08-20T03:40:42;5.07;;;3.70;;
54845;SDS011;53889;50.084;8.646;2022-08-20T03:43:10;5.32;;;3.60;;
54845;SDS011;53889;50.084;8.646;2022-08-20T03:45:38;5.20;;;3.40;;
54845;SDS011;53889;50.084;8.646;2022-08-20T03:48:07;4.93;;;3.40;;
54845;SDS011;53889;50.084;8.646;2022-08-20T03:50:36;4.90;;;3.70;;
54845;SDS011;53889;50.084;8.646;2022-08-20T03:53:07;4.63;;;3.45;;
54845;SDS011;53889;50.084;8.646;2022-08-20T03:55:36;5.38;;;3.65;;
54845;SDS011;53889;50.084;8.646;2022-08-20T03:58:05;4.30;;;3.42;;
54845;SDS011;53889;50.084;8.646;2022-08-20T04:00:34;5.05;;;3.80;;
54845;SDS011;53889;50.084;8.646;2022-08-20T04:03:03;4.57;;;3.55;;
54845;SDS011;53889;50.084;8.646;2022-08-20T04:05:32;6.22;;;3.80;;
54845;SDS011;53889;50.084;8.646;2022-08-20T04:08:03;4.38;;;3.88;;
54845;SDS011;53889;50.084;8.646;2022-08-20T04:10:31;4.03;;;3.50;;
54845;SDS011;53889;50.084;8.646;2022-08-20T04:12:59;5.32;;;4.00;;
54845;SDS011;53889;50.084;8.646;2022-08-20T04:15:26;5.80;;;3.80;;
54845;SDS011;53889;50.084;8.646;2022-08-20T04:17:53;4.15;;;3.58;;
54845;SDS011;53889;50.084;8.646;2022-08-20T04:20:22;4.40;;;3.88;;
54845;SDS011;53889;50.084;8.646;2022-08-20T04:22:50;4.53;;;3.65;;
54845;SDS011;53889;50.084;8.646;2022-08-20T04:25:18;6.18;;;3.92;;
54845;SDS011;53889;50.084;8.646;2022-08-20T04:27:45;5.55;;;4.20;;
54845;SDS011;53889;50.084;8.646;2022-08-20T04:30:16;5.63;;;4.68;;
54845;SDS011;53889;50.084;8.646;2022-08-20T04:32:44;5.25;;;3.92;;
54845;SDS011;53889;50.084;8.646;2022-08-20T04:35:13;4.43;;;3.90;;
54845;SDS011;53889;50.084;8.646;2022-08-20T04:37:42;6.10;;;3.90;;
54845;SDS011;53889;50.084;8.646;2022-08-20T04:40:12;5.43;;;3.95;;
54845;SDS011;53889;50.084;8.646;2022-08-20T04:42:58;5.25;;;3.85;;
54845;SDS011;53889;50.084;8.646;2022-08-20T04:45:27;4.72;;;3.92;;
54845;SDS011;53889;50.084;8.646;2022-08-20T04:47:54;4.47;;;3.75;;
54845;SDS011;53889;50.084;8.646;2022-08-20T04:50:21;6.95;;;4.13;;
54845;SDS011;53889;50.084;8.646;2022-08-20T04:52:51;6.88;;;4.03;;
54845;SDS011;53889;50.084;8.646;2022-08-20T04:55:18;5.53;;;3.97;;
54845;SDS011;53889;50.084;8.646;2022-08-20T04:57:46;5.43;;;4.15;;
54845;SDS011;53889;50.084;8.646;2022-08-20T05:00:15;5.22;;;4.00;;
54845;SDS011;53889;50.084;8.646;2022-08-20T05:02:44;4.50;;;3.85;;
54845;SDS011;53889;50.084;8.646;2022-08-20T05:05:11;4.55;;;3.83;;
54845;SDS011;53889;50.084;8.646;2022-08-20T05:07:39;6.35;;;4.07;;
54845;SDS011;53889;50.084;8.646;2022-08-20T05:10:10;5.85;;;4.15;;
54845;SDS011;53889;50.084;8.646;2022-08-20T05:12:39;5.72;;;4.20;;
54845;SDS011;53889;50.084;8.646;2022-08-20T05:15:06;5.60;;;4.30;;
54845;SDS011;53889;50.084;8.646;2022-08-20T05:17:35;6.32;;;4.40;;
54845;SDS011;53889;50.084;8.646;2022-08-20T05:20:05;6.15;;;4.60;;
54845;SDS011;53889;50.084;8.646;2022-08-20T05:22:34;5.35;;;4.28;;
54845;SDS011;53889;50.084;8.646;2022-08-20T05:25:02;5.60;;;4.53;;
54845;SDS011;53889;50.084;8.646;2022-08-20T05:27:30;5.97;;;5.03;;
54845;SDS011;53889;50.084;8.646;2022-08-20T05:29:58;7.80;;;4.72;;
54845;SDS011;53889;50.084;8.646;2022-08-20T05:32:31;7.57;;;5.03;;
54845;SDS011;53889;50.084;8.646;2022-08-20T05:35:00;8.45;;;4.90;;
54845;SDS011;53889;50.084;8.646;2022-08-20T05:37:30;8.30;;;5.85;;
54845;SDS011;53889;50.084;8.646;2022-08-20T05:39:57;8.00;;;6.07;;
54845;SDS011;53889;50.084;8.646;2022-08-20T05:42:24;8.80;;;7.95;;
54845;SDS011;53889;50.084;8.646;2022-08-20T05:44:53;8.55;;;7.63;;
54845;SDS011;53889;50.084;8.646;2022-08-20T05:47:21;8.35;;;7.35;;
54845;SDS011;53889;50.084;8.646;2022-08-20T05:49:53;8.32;;;7.50;;
54845;SDS011;53889;50.084;8.646;2022-08-20T05:52:20;8.13;;;7.32;;
54845;SDS011;53889;50.084;8.646;2022-08-20T05:54:49;7.72;;;6.93;;
54845;SDS011;53889;50.084;8.646;2022-08-20T05:57:17;8.00;;;7.20;;
54845;SDS011;53889;50.084;8.646;2022-08-20T05:59:45;8.50;;;7.70;;
54845;SDS011;53889;50.084;8.646;2022-08-20T06:02:13;8.80;;;7.88;;
54845;SDS011;53889;50.084;8.646;2022-08-20T06:04:58;9.50;;;8.60;;
54845;SDS011;53889;50.084;8.646;2022-08-20T06:07:25;8.88;;;7.97;;
54845;SDS011;53889;50.084;8.646;2022-08-20T06:09:54;8.05;;;7.25;;
54845;SDS011;53889;50.084;8.646;2022-08-20T06:12:21;7.75;;;6.95;;
54845;SDS011;53889;50.084;8.646;2022-08-20T06:14:49;8.48;;;7.50;;
54845;SDS011;53889;50.084;8.646;2022-08-20T06:17:16;11.32;;;7.35;;
54845;SDS011;53889;50.084;8.646;2022-08-20T06:19:45;7.70;;;6.90;;
54845;SDS011;53889;50.084;8.646;2022-08-20T06:22:13;8.48;;;7.20;;
54845;SDS011;53889;50.084;8.646;2022-08-20T06:24:41;9.32;;;7.63;;
54845;SDS011;53889;50.084;8.646;2022-08-20T06:27:11;7.72;;;6.93;;
54845;SDS011;53889;50.084;8.646;2022-08-20T06:29:40;7.82;;;7.00;;
54845;SDS011;53889;50.084;8.646;2022-08-20T06:32:07;8.77;;;7.80;;
54845;SDS011;53889;50.084;8.646;2022-08-20T06:34:35;9.10;;;8.20;;
54845;SDS011;53889;50.084;8.646;2022-08-20T06:37:08;8.15;;;7.28;;
54845;SDS011;53889;50.084;8.646;2022-08-20T06:39:41;8.40;;;7.60;;
54845;SDS011;53889;50.084;8.646;2022-08-20T06:42:19;7.85;;;7.10;;
54845;SDS011;53889;50.084;8.646;2022-08-20T06:44:47;7.88;;;7.07;;
54845;SDS011;53889;50.084;8.646;2022-08-20T06:47:17;8.95;;;6.85;;
54845;SDS011;53889;50.084;8.646;2022-08-20T06:49:49;8.77;;;6.80;;
54845;SDS011;53889;50.084;8.646;2022-08-20T06:52:17;7.15;;;6.40;;
54845;SDS011;53889;50.084;8.646;2022-08-20T06:54:45;7.63;;;6.78;;
54845;SDS011;53889;50.084;8.646;2022-08-20T06:57:14;7.50;;;6.75;;
54845;SDS011;53889;50.084;8.646;2022-08-20T06:59:42;8.23;;;6.93;;
54845;SDS011;53889;50.084;8.646;2022-08-20T07:02:09;7.30;;;6.60;;
54845;SDS011;53889;50.084;8.646;2022-08-20T07:04:37;6.78;;;6.07;;
54845;SDS011;53889;50.084;8.646;2022-08-20T07:07:04;6.72;;;6.03;;
54845;SDS011;53889;50.084;8.646;2022-08-20T07:09:32;6.60;;;5.90;;
54845;SDS011;53889;50.084;8.646;2022-08-20T07:12:00;6.80;;;6.10;;
54845;SDS011;53889;50.084;8.646;2022-08-20T07:14:32;6.57;;;5.75;;
54845;SDS011;53889;50.084;8.646;2022-08-20T07:17:00;6.78;;;5.93;;
54845;SDS011;53889;50.084;8.646;2022-08-20T07:19:27;8.23;;;6.20;;
54845;SDS011;53889;50.084;8.646;2022-08-20T07:21:55;6.28;;;5.68;;
54845;SDS011;53889;50.084;8.646;2022-08-20T07:24:21;8.70;;;6.13;;
54845;SDS011;53889;50.084;8.646;2022-08-20T07:26:48;6.95;;;6.25;;
54845;SDS011;53889;50.084;8.646;2022-08-20T07:29:16;8.23;;;5.82;;
54845;SDS011;53889;50.084;8.646;2022-08-20T07:31:44;6.40;;;5.80;;
54845;SDS011;53889;50.084;8.646;2022-08-20T07:34:28;5.90;;;5.32;;
54845;SDS011;53889;50.084;8.646;2022-08-20T07:36:57;6.80;;;5.80;;
54845;SDS011;53889;50.084;8.646;2022-08-20T07:39:24;7.50;;;6.05;;
54845;SDS011;53889;50.084;8.646;2022-08-20T07:41:50;6.80;;;6.15;;
54845;SDS011;53889;50.084;8.646;2022-08-20T07:44:27;6.03;;;5.40;;
54845;SDS011;53889;50.084;8.646;2022-08-20T07:46:55;7.07;;;5.97;;
54845;SDS011;53889;50.084;8.646;2022-08-20T07:49:24;6.90;;;5.97;;
54845;SDS011;53889;50.084;8.646;2022-08-20T07:51:50;7.38;;;6.10;;
54845;SDS011;53889;50.084;8.646;2022-08-20T07:54:17;6.07;;;5.13;;
54845;SDS011;53889;50.084;8.646;2022-08-20T07:56:44;6.75;;;4.80;;
54845;SDS011;53889;50.084;8.646;2022-08-20T07:59:11;5.82;;;4.90;;
54845;SDS011;53889;50.084;8.646;2022-08-20T08:01:38;6.47;;;4.88;;
54845;SDS011;53889;50.084;8.646;2022-08-20T08:04:06;6.72;;;4.85;;
54845;SDS011;53889;50.084;8.646;2022-08-20T08:06:33;3.70;;;3.30;;
54845;SDS011;53889;50.084;8.646;2022-08-20T08:09:01;4.80;;;3.97;;
54845;SDS011;53889;50.084;8.646;2022-08-20T08:11:30;4.05;;;3.58;;
54845;SDS011;53889;50.084;8.646;2022-08-20T08:13:58;3.30;;;2.70;;
54845;SDS011;53889;50.084;8.646;2022-08-20T08:16:26;3.88;;;3.50;;
54845;SDS011;53889;50.084;8.646;2022-08-20T08:18:56;4.03;;;3.47;;
54845;SDS011;53889;50.084;8.646;2022-08-20T08:21:27;4.90;;;4.00;;
54845;SDS011;53889;50.084;8.646;2022-08-20T08:23:55;4.68;;;3.67;;
54845;SDS011;53889;50.084;8.646;2022-08-20T08:26:22;5.80;;;3.95;;
54845;SDS011;53889;50.084;8.646;2022-08-20T08:28:50;4.30;;;3.05;;
54845;SDS011;53889;50.084;8.646;2022-08-20T08:31:16;4.40;;;3.78;;
54845;SDS011;53889;50.084;8.646;2022-08-20T08:33:43;5.90;;;3.60;;
54845;SDS011;53889;50.084;8.646;2022-08-20T08:36:11;3.92;;;3.42;;
54845;SDS011;53889;50.084;8.646;2022-08-20T08:38:40;5.85;;;3.80;;
54845;SDS011;53889;50.084;8.646;2022-08-20T08:41:10;5.05;;;3.92;;
54845;SDS011;53889;50.084;8.646;2022-08-20T08:43:41;4.18;;;3.60;;
54845;SDS011;53889;50.084;8.646;2022-08-20T08:46:11;4.72;;;4.20;;
54845;SDS011;53889;50.084;8.646;2022-08-20T08:48:42;5.32;;;4.07;;
54845;SDS011;53889;50.084;8.646;2022-08-20T08:51:13;4.72;;;4.25;;
54845;SDS011;53889;50.084;8.646;2022-08-20T08:53:45;5.10;;;4.60;;
54845;SDS011;53889;50.084;8.646;2022-08-20T08:56:17;5.07;;;4.07;;
54845;SDS011;53889;50.084;8.646;2022-08-20T08:58:54;4.85;;;3.88;;
54845;SDS011;53889;50.084;8.646;2022-08-20T09:01:23;5.90;;;3.83;;
54845;SDS011;53889;50.084;8.646;2022-08-20T09:03:50;5.25;;;3.78;;
54845;SDS011;53889;50.084;8.646;2022-08-20T09:06:18;5.78;;;3.38;;
54845;SDS011;53889;50.084;8.646;2022-08-20T09:08:51;4.57;;;3.28;;
54845;SDS011;53889;50.084;8.646;2022-08-20T09:11:21;5.30;;;3.47;;
54845;SDS011;53889;50.084;8.646;2022-08-20T09:13:49;4.68;;;3.28;;
54845;SDS011;53889;50.084;8.646;2022-08-20T09:16:17;4.65;;;3.00;;
54845;SDS011;53889;50.084;8.646;2022-08-20T09:18:43;4.68;;;3.05;;
54845;SDS011;53889;50.084;8.646;2022-08-20T09:21:10;4.68;;;2.80;;
54845;SDS011;53889;50.084;8.646;2022-08-20T09:23:38;3.80;;;2.60;;
54845;SDS011;53889;50.084;8.646;2022-08-20T09:26:06;4.03;;;2.20;;
54845;SDS011;53889;50.084;8.646;2022-08-20T09:28:33;2.45;;;1.52;;
54845;SDS011;53889;50.084;8.646;2022-08-20T09:31:02;1.88;;;1.40;;
54845;SDS011;53889;50.084;8.646;2022-08-20T09:33:29;1.88;;;1.40;;
54845;SDS011;53889;50.084;8.646;2022-08-20T09:35:55;2.28;;;1.30;;
54845;SDS011;53889;50.084;8.646;2022-08-20T09:38:22;1.25;;;1.10;;
54845;SDS011;53889;50.084;8.646;2022-08-20T09:40:49;1.65;;;1.10;;
54845;SDS011;53889;50.084;8.646;2022-08-20T09:43:17;1.17;;;0.90;;
54845;SDS011;53889;50.084;8.646;2022-08-20T09:45:43;1.30;;;0.90;;
54845;SDS011;53889;50.084;8.646;2022-08-20T09:48:10;1.92;;;0.85;;
54845;SDS011;53889;50.084;8.646;2022-08-20T09:50:37;1.27;;;0.80;;
54845;SDS011;53889;50.084;8.646;2022-08-20T09:53:08;1.05;;;0.90;;
54845;SDS011;53889;50.084;8.646;2022-08-20T09:55:36;2.53;;;1.00;;
54845;SDS011;53889;50.084;8.646;2022-08-20T09:58:05;1.95;;;0.90;;
54845;SDS011;53889;50.084;8.646;2022-08-20T10:00:38;1.13;;;0.70;;
54845;SDS011;53889;50.084;8.646;2022-08-20T10:03:05;1.45;;;0.93;;
54845;SDS011;53889;50.084;8.646;2022-08-20T10:05:32;1.83;;;1.10;;
54845;SDS011;53889;50.084;8.646;2022-08-20T10:07:59;1.52;;;1.05;;
54845;SDS011;53889;50.084;8.646;2022-08-20T10:10:29;1.50;;;1.05;;
54845;SDS011;53889;50.084;8.646;2022-08-20T10:12:56;1.23;;;0.80;;
54845;SDS011;53889;50.084;8.646;2022-08-20T10:15:22;2.03;;;0.88;;
54845;SDS011;53889;50.084;8.646;2022-08-20T10:17:50;2.30;;;1.13;;
54845;SDS011;53889;50.084;8.646;2022-08-20T10:20:17;1.08;;;0.90;;
54845;SDS011;53889;50.084;8.646;2022-08-20T10:22:44;1.65;;;1.00;;
54845;SDS011;53889;50.084;8.646;2022-08-20T10:25:11;1.48;;;0.82;;
54845;SDS011;53889;50.084;8.646;2022-08-20T10:27:38;0.95;;;0.88;;
54845;SDS011;53889;50.084;8.646;2022-08-20T10:30:05;1.08;;;0.90;;
54845;SDS011;53889;50.084;8.646;2022-08-20T10:32:32;1.60;;;1.00;;
54845;SDS011;53889;50.084;8.646;2022-08-20T10:35:01;1.23;;;0.82;;
54845;SDS011;53889;50.084;8.646;2022-08-20T10:37:29;1.52;;;1.15;;
54845;SDS011;53889;50.084;8.646;2022-08-20T10:39:55;1.48;;;1.13;;
54845;SDS011;53889;50.084;8.646;2022-08-20T10:42:22;1.33;;;1.10;;
54845;SDS011;53889;50.084;8.646;2022-08-20T10:44:49;1.88;;;1.23;;
54845;SDS011;53889;50.084;8.646;2022-08-20T10:47:19;1.55;;;1.02;;
54845;SDS011;53889;50.084;8.646;2022-08-20T10:49:47;2.88;;;1.10;;
54845;SDS011;53889;50.084;8.646;2022-08-20T10:52:17;1.50;;;1.10;;
54845;SDS011;53889;50.084;8.646;2022-08-20T10:54:43;1.58;;;1.00;;
54845;SDS011;53889;50.084;8.646;2022-08-20T10:57:12;1.30;;;1.00;;
54845;SDS011;53889;50.084;8.646;2022-08-20T10:59:41;0.95;;;0.70;;
54845;SDS011;53889;50.084;8.646;2022-08-20T11:02:09;2.22;;;0.82;;
54845;SDS011;53889;50.084;8.646;2022-08-20T11:04:36;1.52;;;0.98;;
54845;SDS011;53889;50.084;8.646;2022-08-20T11:07:11;1.55;;;1.30;;
54845;SDS011;53889;50.084;8.646;2022-08-20T11:09:41;3.67;;;1.73;;
54845;SDS011;53889;50.084;8.646;2022-08-20T11:12:08;1.73;;;1.17;;
54845;SDS011;53889;50.084;8.646;2022-08-20T11:14:35;1.10;;;0.82;;
54845;SDS011;53889;50.084;8.646;2022-08-20T11:17:02;1.38;;;0.80;;
54845;SDS011;53889;50.084;8.646;2022-08-20T11:19:29;0.95;;;0.85;;
54845;SDS011;53889;50.084;8.646;2022-08-20T11:21:56;2.33;;;1.00;;
54845;SDS011;53889;50.084;8.646;2022-08-20T11:24:23;1.60;;;1.20;;
54845;SDS011;53889;50.084;8.646;2022-08-20T11:26:51;1.48;;;0.80;;
54845;SDS011;53889;50.084;8.646;2022-08-20T11:29:18;1.45;;;1.00;;
54845;SDS011;53889;50.084;8.646;2022-08-20T11:31:46;1.27;;;0.80;;
54845;SDS011;53889;50.084;8.646;2022-08-20T11:34:13;1.35;;;0.70;;
54845;SDS011;53889;50.084;8.646;2022-08-20T11:36:40;1.05;;;0.47;;
54845;SDS011;53889;50.084;8.646;2022-08-20T11:39:07;1.02;;;0.70;;
54845;SDS011;53889;50.084;8.646;2022-08-20T11:41:33;0.88;;;0.70;;
54845;SDS011;53889;50.084;8.646;2022-08-20T11:44:02;2.50;;;0.70;;
54845;SDS011;53889;50.084;8.646;2022-08-20T11:46:29;4.80;;;2.97;;
54845;SDS011;53889;50.084;8.646;2022-08-20T11:48:56;1.30;;;0.80;;
54845;SDS011;53889;50.084;8.646;2022-08-20T11:51:23;1.08;;;0.70;;
54845;SDS011;53889;50.084;8.646;2022-08-20T11:53:50;1.35;;;0.80;;
54845;SDS011;53889;50.084;8.646;2022-08-20T11:56:17;0.80;;;0.60;;
54845;SDS011;53889;50.084;8.646;2022-08-20T11:58:44;1.95;;;1.42;;
54845;SDS011;53889;50.084;8.646;2022-08-20T12:01:12;3.03;;;0.80;;
54845;SDS011;53889;50.084;8.646;2022-08-20T12:03:39;3.35;;;2.55;;
54845;SDS011;53889;50.084;8.646;2022-08-20T12:06:06;3.05;;;0.60;;
54845;SDS011;53889;50.084;8.646;2022-08-20T12:08:33;1.08;;;0.40;;
54845;SDS011;53889;50.084;8.646;2022-08-20T12:11:00;1.10;;;0.63;;
54845;SDS011;53889;50.084;8.646;2022-08-20T12:13:29;1.05;;;0.50;;
54845;SDS011;53889;50.084;8.646;2022-08-20T12:15:58;0.25;;;0.20;;
54845;SDS011;53889;50.084;8.646;2022-08-20T12:18:26;0.75;;;0.40;;
54845;SDS011;53889;50.084;8.646;2022-08-20T12:20:53;0.25;;;0.25;;
54845;SDS011;53889;50.084;8.646;2022-08-20T12:23:20;0.20;;;0.20;;
54845;SDS011;53889;50.084;8.646;2022-08-20T12:25:47;0.82;;;0.60;;
54845;SDS011;53889;50.084;8.646;2022-08-20T12:28:14;0.75;;;0.50;;
54845;SDS011;53889;50.084;8.646;2022-08-20T12:30:41;0.55;;;0.30;;
54845;SDS011;53889;50.084;8.646;2022-08-20T12:33:07;0.63;;;0.20;;
54845;SDS011;53889;50.084;8.646;2022-08-20T12:35:35;1.05;;;0.40;;
54845;SDS011;53889;50.084;8.646;2022-08-20T12:38:02;0.57;;;0.50;;
54845;SDS011;53889;50.084;8.646;2022-08-20T12:40:30;0.43;;;0.30;;
54845;SDS011;53889;50.084;8.646;2022-08-20T12:42:58;2.28;;;0.60;;
54845;SDS011;53889;50.084;8.646;2022-08-20T12:45:25;0.65;;;0.40;;
54845;SDS011;53889;50.084;8.646;2022-08-20T12:47:52;0.65;;;0.40;;
54845;SDS011;53889;50.084;8.646;2022-08-20T12:50:26;0.73;;;0.30;;
54845;SDS011;53889;50.084;8.646;2022-08-20T12:52:54;0.88;;;0.20;;
54845;SDS011;53889;50.084;8.646;2022-08-20T12:55:21;1.30;;;0.35;;
54845;SDS011;53889;50.084;8.646;2022-08-20T12:57:48;0.90;;;0.30;;
54845;SDS011;53889;50.084;8.646;2022-08-20T13:00:17;1.38;;;0.50;;
54845;SDS011;53889;50.084;8.646;2022-08-20T13:02:46;2.15;;;0.55;;
54845;SDS011;53889;50.084;8.646;2022-08-20T13:05:13;0.75;;;0.40;;
54845;SDS011;53889;50.084;8.646;2022-08-20T13:07:42;1.40;;;0.50;;
54845;SDS011;53889;50.084;8.646;2022-08-20T13:10:13;0.28;;;0.25;;
54845;SDS011;53889;50.084;8.646;2022-08-20T13:12:41;0.88;;;0.40;;
54845;SDS011;53889;50.084;8.646;2022-08-20T13:15:08;1.83;;;0.50;;
54845;SDS011;53889;50.084;8.646;2022-08-20T13:17:35;0.40;;;0.40;;
54845;SDS011;53889;50.084;8.646;2022-08-20T13:20:02;0.47;;;0.30;;
54845;SDS011;53889;50.084;8.646;2022-08-20T13:22:30;0.30;;;0.25;;
54845;SDS011;53889;50.084;8.646;2022-08-20T13:24:57;2.00;;;0.40;;
54845;SDS011;53889;50.084;8.646;2022-08-20T13:27:25;1.73;;;0.50;;
54845;SDS011;53889;50.084;8.646;2022-08-20T13:32:27;2.75;;;0.80;;
54845;SDS011;53889;50.084;8.646;2022-08-20T13:34:53;3.30;;;1.70;;
54845;SDS011;53889;50.084;8.646;2022-08-20T13:37:21;1.20;;;0.73;;
54845;SDS011;53889;50.084;8.646;2022-08-20T13:39:50;2.85;;;1.10;;
54845;SDS011;53889;50.084;8.646;2022-08-20T13:42:18;2.05;;;1.00;;
54845;SDS011;53889;50.084;8.646;2022-08-20T13:44:47;1.20;;;0.77;;
54845;SDS011;53889;50.084;8.646;2022-08-20T13:47:14;1.13;;;0.80;;
54845;SDS011;53889;50.084;8.646;2022-08-20T13:49:41;3.70;;;0.95;;
54845;SDS011;53889;50.084;8.646;2022-08-20T13:52:08;2.25;;;0.90;;
54845;SDS011;53889;50.084;8.646;2022-08-20T13:54:35;2.40;;;1.00;;
54845;SDS011;53889;50.084;8.646;2022-08-20T13:57:03;1.77;;;0.90;;
54845;SDS011;53889;50.084;8.646;2022-08-20T13:59:33;1.70;;;0.98;;
54845;SDS011;53889;50.084;8.646;2022-08-20T14:02:02;2.15;;;1.00;;
54845;SDS011;53889;50.084;8.646;2022-08-20T14:04:29;2.38;;;0.93;;
54845;SDS011;53889;50.084;8.646;2022-08-20T14:06:56;1.73;;;1.20;;
54845;SDS011;53889;50.084;8.646;2022-08-20T14:09:23;2.78;;;1.10;;
54845;SDS011;53889;50.084;8.646;2022-08-20T14:11:49;2.30;;;1.05;;
54845;SDS011;53889;50.084;8.646;2022-08-20T14:14:16;1.73;;;1.10;;
54845;SDS011;53889;50.084;8.646;2022-08-20T14:16:43;1.65;;;1.08;;
54845;SDS011;53889;50.084;8.646;2022-08-20T14:19:11;1.58;;;1.00;;
54845;SDS011;53889;50.084;8.646;2022-08-20T14:21:38;2.53;;;1.30;;
54845;SDS011;53889;50.084;8.646;2022-08-20T14:24:04;1.70;;;1.10;;
54845;SDS011;53889;50.084;8.646;2022-08-20T14:26:31;1.73;;;1.00;;
54845;SDS011;53889;50.084;8.646;2022-08-20T14:28:58;1.23;;;1.10;;
54845;SDS011;53889;50.084;8.646;2022-08-20T14:31:25;2.97;;;1.40;;
54845;SDS011;53889;50.084;8.646;2022-08-20T14:33:52;2.65;;;1.38;;
54845;SDS011;53889;50.084;8.646;2022-08-20T14:36:20;3.40;;;1.40;;
54845;SDS011;53889;50.084;8.646;2022-08-20T14:38:46;2.97;;;1.48;;
54845;SDS011;53889;50.084;8.646;2022-08-20T14:41:13;2.40;;;1.40;;
54845;SDS011;53889;50.084;8.646;2022-08-20T14:43:40;1.85;;;1.27;;
54845;SDS011;53889;50.084;8.646;2022-08-20T14:46:06;4.35;;;1.35;;
54845;SDS011;53889;50.084;8.646;2022-08-20T14:48:33;1.80;;;1.25;;
54845;SDS011;53889;50.084;8.646;2022-08-20T14:51:00;2.28;;;1.33;;
54845;SDS011;53889;50.084;8.646;2022-08-20T14:53:28;2.33;;;1.48;;
54845;SDS011;53889;50.084;8.646;2022-08-20T14:55:55;3.28;;;1.40;;
54845;SDS011;53889;50.084;8.646;2022-08-20T14:58:21;3.63;;;1.40;;